Terminal Aerodrome Forecast
Issued by NWS Billings, MT

Home | Current Version | Previous Version | Graphics & Text | Print | Product List | Glossary On
Versions: 1 2 3 4 5 6 7 8 9 10 11 12 13
000
FTUS45 KBYZ 261122
TAFMLS
TAF
KMLS 261122Z 2612/2712 15005KT P6SM SCT080 BKN120
     FM261700 28006KT P6SM VCSH FEW070 BKN090
     FM262100 27007KT P6SM VCTS BKN070CB
     FM270900 15005KT P6SM FEW070=

USA.gov is the U.S. government's official web portal to all federal, state and local government web resources and services.